createdAt,value
2023-02-13T00:02:19.175Z,21.63
2023-02-13T00:07:18.009Z,25.20
2023-02-13T00:12:18.249Z,24.53
2023-02-13T00:17:17.088Z,18.07
2023-02-13T00:22:17.797Z,14.83
2023-02-13T00:27:18.087Z,7.87
2023-02-13T00:32:16.959Z,8.03
2023-02-13T00:37:15.793Z,13.23
2023-02-13T00:42:14.463Z,11.93
2023-02-13T00:47:17.985Z,8.10
2023-02-13T00:52:16.752Z,6.00
2023-02-13T00:57:15.985Z,5.40
2023-02-13T01:02:14.889Z,5.40
2023-02-13T01:07:16.788Z,6.43
2023-02-13T01:12:16.132Z,5.23
2023-02-13T01:17:15.593Z,6.20
2023-02-13T01:22:15.788Z,4.10
2023-02-13T01:27:16.554Z,3.97
2023-02-13T01:32:16.722Z,4.30
2023-02-13T01:37:18.297Z,4.60
2023-02-13T01:42:18.761Z,4.35
2023-02-13T01:47:23.789Z,4.20
2023-02-13T01:52:24.025Z,4.13
2023-02-13T01:57:26.008Z,6.33
2023-02-13T02:02:25.493Z,4.33
2023-02-13T02:07:27.975Z,4.33
2023-02-13T02:12:37.602Z,3.93
2023-02-13T02:17:38.390Z,3.77
2023-02-13T02:23:06.804Z,4.20
2023-02-13T02:28:53.519Z,4.30
2023-02-13T02:34:06.985Z,3.93
2023-02-13T02:39:16.243Z,4.27
2023-02-13T02:44:29.778Z,3.83
2023-02-13T02:49:54.188Z,3.70
2023-02-13T02:55:08.864Z,4.13
2023-02-13T03:00:35.056Z,3.50
2023-02-13T03:05:58.636Z,3.43
2023-02-13T03:11:15.114Z,4.53
2023-02-13T03:16:36.382Z,3.77
2023-02-13T03:22:06.041Z,3.67
2023-02-13T03:27:10.612Z,4.47
2023-02-13T03:32:15.454Z,4.97
2023-02-13T03:37:35.901Z,3.73
2023-02-13T03:42:38.576Z,4.20
2023-02-13T03:47:38.379Z,3.20
2023-02-13T03:52:44.622Z,3.77
2023-02-13T03:58:03.562Z,8.30
2023-02-13T04:03:10.102Z,6.00
2023-02-13T04:08:10.453Z,4.53
2023-02-13T04:13:16.111Z,4.97
2023-02-13T04:18:19.220Z,5.33
2023-02-13T04:23:19.422Z,3.97
2023-02-13T04:28:18.223Z,4.60
2023-02-13T04:33:17.516Z,4.80
2023-02-13T04:38:16.530Z,4.50
2023-02-13T04:43:16.674Z,4.73
2023-02-13T04:48:15.524Z,5.10
2023-02-13T04:53:14.342Z,10.90
2023-02-13T04:58:13.168Z,12.57
2023-02-13T05:03:14.977Z,14.90
2023-02-13T05:08:13.672Z,12.07
2023-02-13T05:13:12.430Z,20.77
2023-02-13T05:18:11.175Z,27.23
2023-02-13T05:23:24.569Z,17.37
2023-02-13T05:28:40.351Z,14.82
2023-02-13T05:33:39.445Z,15.90
2023-02-13T05:38:41.416Z,15.10
2023-02-13T05:43:40.261Z,24.43
2023-02-13T05:48:38.969Z,23.23
2023-02-13T05:53:39.356Z,25.43
2023-02-13T05:58:38.349Z,24.37
2023-02-13T06:03:37.120Z,15.87
2023-02-13T06:08:36.114Z,20.40
2023-02-13T06:13:36.373Z,22.00
2023-02-13T06:18:35.645Z,19.40
2023-02-13T06:23:34.600Z,18.33
2023-02-13T06:28:34.046Z,20.47
2023-02-13T06:33:34.610Z,16.83
2023-02-13T06:38:33.499Z,31.00
2023-02-13T06:43:32.568Z,32.77
2023-02-13T06:48:31.265Z,24.40
2023-02-13T06:53:32.016Z,24.63
2023-02-13T06:58:30.821Z,25.17
2023-02-13T07:03:29.580Z,23.80
2023-02-13T07:08:28.646Z,23.03
2023-02-13T07:13:28.729Z,32.93
2023-02-13T07:18:28.055Z,35.30
2023-02-13T07:23:29.047Z,27.87
2023-02-13T07:28:30.174Z,84.93
2023-02-13T07:33:29.218Z,161.90
2023-02-13T07:38:28.239Z,33.80
2023-02-13T07:43:29.073Z,21.60
2023-02-13T07:48:28.460Z,13.37
2023-02-13T07:53:27.462Z,9.47
2023-02-13T07:58:26.275Z,7.90
2023-02-13T08:03:26.532Z,11.33
2023-02-13T08:08:25.311Z,9.23
2023-02-13T08:13:24.267Z,8.40
2023-02-13T08:18:23.144Z,10.55
2023-02-13T08:23:23.361Z,8.75
2023-02-13T08:28:22.468Z,8.55
2023-02-13T08:33:21.276Z,7.40
2023-02-13T08:38:21.217Z,6.38
2023-02-13T08:43:21.345Z,8.82
2023-02-13T08:48:20.431Z,9.43
2023-02-13T08:53:19.219Z,8.48
2023-02-13T08:58:17.967Z,9.18
2023-02-13T09:03:18.410Z,8.77
2023-02-13T09:08:18.826Z,9.27
2023-02-13T09:13:17.700Z,9.35
2023-02-13T09:18:17.806Z,8.43
2023-02-13T09:23:16.565Z,10.00
2023-02-13T09:28:15.536Z,9.13
2023-02-13T09:33:14.289Z,9.15
2023-02-13T09:38:14.499Z,7.95
2023-02-13T09:43:17.984Z,7.72
2023-02-13T09:53:24.520Z,9.27
2023-02-13T09:58:36.948Z,11.50
2023-02-13T10:03:42.829Z,12.90
2023-02-13T10:08:55.119Z,14.00
2023-02-13T10:14:06.212Z,11.70
2023-02-13T10:19:13.683Z,10.70
2023-02-13T10:24:19.289Z,12.80
2023-02-13T10:29:41.746Z,13.90
2023-02-13T10:34:45.414Z,18.10
2023-02-13T10:39:48.805Z,18.95
2023-02-13T10:50:04.940Z,18.42
2023-02-13T10:55:23.427Z,17.58
2023-02-13T11:00:30.947Z,17.35
2023-02-13T11:05:34.937Z,18.00
2023-02-13T11:10:35.223Z,20.52
2023-02-13T11:15:34.689Z,17.88
2023-02-13T11:20:39.194Z,20.25
2023-02-13T11:25:39.962Z,19.48
2023-02-13T11:30:39.673Z,22.40
2023-02-13T11:35:41.039Z,19.42
2023-02-13T11:40:44.555Z,21.55
2023-02-13T11:45:43.297Z,22.80
2023-02-13T11:50:42.625Z,23.20
2023-02-13T11:55:43.427Z,23.70
2023-02-13T12:00:43.600Z,23.05
2023-02-13T12:05:42.597Z,22.95
2023-02-13T12:10:43.880Z,22.05
2023-02-13T12:15:44.824Z,24.48
2023-02-13T12:20:54.908Z,24.83
2023-02-13T12:26:15.336Z,25.75
2023-02-13T12:31:53.483Z,24.17
2023-02-13T12:37:05.141Z,24.30
2023-02-13T12:42:23.162Z,24.77
2023-02-13T12:47:25.794Z,34.03
2023-02-13T12:52:41.727Z,42.90
2023-02-13T12:57:54.762Z,31.67
2023-02-13T13:03:04.929Z,30.35
2023-02-13T13:08:16.722Z,26.65
2023-02-13T13:13:32.648Z,26.92
2023-02-13T13:18:48.347Z,25.98
2023-02-13T13:23:54.773Z,25.90
2023-02-13T13:28:57.918Z,26.33
2023-02-13T13:34:03.128Z,27.70
2023-02-13T13:39:07.418Z,29.63
2023-02-13T13:44:26.446Z,30.85
2023-02-13T13:49:36.292Z,32.85
2023-02-13T13:54:36.919Z,31.92
2023-02-13T14:00:26.249Z,30.77
2023-02-13T14:05:30.434Z,32.20
2023-02-13T14:11:06.751Z,32.50
2023-02-13T14:16:10.411Z,32.85
2023-02-13T14:21:12.829Z,31.42
2023-02-13T14:26:22.886Z,33.88
2023-02-13T14:31:27.591Z,34.40
2023-02-13T14:36:33.419Z,33.60
2023-02-13T14:42:00.231Z,36.65
2023-02-13T14:47:01.779Z,36.17
2023-02-13T14:52:08.045Z,37.78
2023-02-13T14:57:12.024Z,42.95
2023-02-13T15:02:19.815Z,37.47
2023-02-13T15:07:24.116Z,37.30
2023-02-13T15:12:28.921Z,35.97
2023-02-13T15:17:30.744Z,36.97
2023-02-13T15:22:34.563Z,37.53
2023-02-13T15:27:37.053Z,37.67
2023-02-13T15:32:38.065Z,37.40
2023-02-13T15:37:38.348Z,43.70
2023-02-13T15:42:39.601Z,43.63
2023-02-13T15:47:38.783Z,47.35
2023-02-13T15:52:44.180Z,48.72
2023-02-13T15:57:45.094Z,50.33
2023-02-13T16:02:48.957Z,47.15
2023-02-13T16:07:54.142Z,46.70
2023-02-13T16:12:53.345Z,76.20
2023-02-13T16:17:52.330Z,68.47
2023-02-13T16:22:54.789Z,59.33
2023-02-13T16:27:56.614Z,31.97
2023-02-13T16:33:12.049Z,57.85
2023-02-13T16:38:28.519Z,49.03
2023-02-13T16:43:45.668Z,48.53
2023-02-13T16:48:45.944Z,47.58
2023-02-13T16:53:46.564Z,49.10
2023-02-13T16:58:45.629Z,51.55
2023-02-13T17:03:44.834Z,75.38
2023-02-13T17:08:46.796Z,54.22
2023-02-13T17:13:45.527Z,65.07
2023-02-13T17:18:44.300Z,67.38
2023-02-13T17:23:43.189Z,52.05
2023-02-13T17:28:43.393Z,53.10
2023-02-13T17:33:43.338Z,64.22
2023-02-13T17:38:42.303Z,65.55
2023-02-13T17:43:41.118Z,60.72
2023-02-13T17:48:41.303Z,70.40
2023-02-13T17:53:40.167Z,64.53
2023-02-13T17:59:09.667Z,67.45
2023-02-13T18:04:27.513Z,57.65
2023-02-13T18:09:31.309Z,72.18
2023-02-13T18:14:41.195Z,62.30
2023-02-13T18:19:50.735Z,64.28
2023-02-13T18:24:54.208Z,63.90
2023-02-13T18:29:59.475Z,71.80
2023-02-13T18:35:05.770Z,62.40
2023-02-13T18:40:07.778Z,58.45
2023-02-13T18:45:07.905Z,68.50
2023-02-13T18:50:12.216Z,89.93
2023-02-13T18:55:24.055Z,84.38
2023-02-13T19:00:38.810Z,83.35
2023-02-13T19:05:42.876Z,76.82
2023-02-13T19:10:42.369Z,71.72
2023-02-13T19:15:42.123Z,70.63
2023-02-13T19:20:44.905Z,90.97
2023-02-13T19:25:43.984Z,76.88
2023-02-13T19:30:42.859Z,153.30
2023-02-13T19:35:43.009Z,110.57
2023-02-13T19:40:43.269Z,80.35
2023-02-13T19:45:43.715Z,97.15
2023-02-13T19:50:42.655Z,68.13
2023-02-13T19:55:43.148Z,68.45
2023-02-13T20:00:42.594Z,61.05
2023-02-13T20:05:42.063Z,72.70
2023-02-13T20:10:46.958Z,66.45
2023-02-13T20:15:45.895Z,73.10
2023-02-13T20:20:44.887Z,64.25
2023-02-13T20:25:46.799Z,55.17
2023-02-13T20:30:48.523Z,60.05
2023-02-13T20:35:50.457Z,57.50
2023-02-13T20:40:52.378Z,56.40
2023-02-13T20:45:53.033Z,49.40
2023-02-13T20:51:00.656Z,55.70
2023-02-13T20:56:11.358Z,57.78
2023-02-13T21:01:15.798Z,46.95
2023-02-13T21:06:15.643Z,45.15
2023-02-13T21:11:16.021Z,42.40
2023-02-13T21:16:21.082Z,44.55
2023-02-13T21:21:24.698Z,41.92
2023-02-13T21:26:29.097Z,40.42
2023-02-13T21:36:31.099Z,39.15
2023-02-13T21:41:32.380Z,40.53
2023-02-13T21:46:42.664Z,59.50
2023-02-13T21:51:43.585Z,55.63
2023-02-13T21:56:45.905Z,41.75
2023-02-13T22:01:47.158Z,47.72
2023-02-13T22:06:52.046Z,45.58
2023-02-13T22:11:56.022Z,44.30
2023-02-13T22:16:56.886Z,40.67
2023-02-13T22:21:56.117Z,35.92
2023-02-13T22:26:56.445Z,35.03
2023-02-13T22:31:55.369Z,38.83
2023-02-13T22:36:54.350Z,45.15
2023-02-13T22:41:58.255Z,37.83
2023-02-13T22:46:57.062Z,35.92
2023-02-13T22:51:55.876Z,38.67
2023-02-13T22:56:54.681Z,39.38
2023-02-13T23:01:54.870Z,39.15
2023-02-13T23:06:53.670Z,37.80
2023-02-13T23:12:10.139Z,39.55
2023-02-13T23:17:27.781Z,35.70
2023-02-13T23:22:26.537Z,32.20
2023-02-13T23:27:25.368Z,33.43
2023-02-13T23:32:25.878Z,31.07
2023-02-13T23:37:24.741Z,31.60
2023-02-13T23:42:23.964Z,28.43
2023-02-13T23:47:22.799Z,28.75
2023-02-13T23:52:23.099Z,27.67
2023-02-13T23:57:21.874Z,24.57
